createdAt,value
2019-01-12T00:00:16.147Z,6.58
2019-01-12T00:05:12.056Z,6.53
2019-01-12T00:10:08.069Z,6.53
2019-01-12T00:15:05.973Z,6.57
2019-01-12T00:20:06.773Z,6.60
2019-01-12T00:25:05.500Z,6.58
2019-01-12T00:30:01.524Z,6.59
2019-01-12T00:34:57.433Z,6.57
2019-01-12T00:39:53.417Z,6.53
2019-01-12T00:44:49.320Z,6.48
2019-01-12T00:49:45.960Z,6.44
2019-01-12T00:54:42.027Z,6.47
2019-01-12T00:59:37.941Z,6.45
2019-01-12T01:04:33.855Z,6.45
2019-01-12T01:09:29.854Z,6.46
2019-01-12T01:14:25.776Z,6.42
2019-01-12T01:19:24.373Z,6.36
2019-01-12T01:24:20.393Z,6.36
2019-01-12T01:29:16.421Z,6.34
2019-01-12T01:34:12.336Z,6.31
2019-01-12T01:39:08.369Z,6.28
2019-01-12T01:44:04.483Z,6.30
2019-01-12T01:49:06.733Z,6.29
2019-01-12T01:54:03.092Z,6.29
2019-01-12T01:58:58.986Z,6.28
2019-01-12T02:03:54.916Z,6.31
2019-01-12T02:08:50.821Z,6.29
2019-01-12T02:13:46.795Z,6.28
2019-01-12T02:18:45.719Z,6.26
2019-01-12T02:23:41.826Z,6.24
2019-01-12T02:28:37.736Z,6.26
2019-01-12T02:33:33.659Z,6.26
2019-01-12T02:38:29.554Z,6.24
2019-01-12T02:43:25.460Z,6.24
2019-01-12T02:48:21.413Z,6.25
2019-01-12T02:53:17.314Z,6.21
2019-01-12T02:58:13.252Z,6.26
2019-01-12T03:03:09.158Z,6.20
2019-01-12T03:08:05.164Z,6.17
2019-01-12T03:13:01.065Z,6.12
2019-01-12T03:17:56.973Z,6.11
2019-01-12T03:22:52.907Z,6.08
2019-01-12T03:27:48.806Z,6.06
2019-01-12T03:32:44.717Z,6.08
2019-01-12T03:37:40.634Z,6.11
2019-01-12T03:42:36.720Z,6.14
2019-01-12T03:47:32.619Z,6.11
2019-01-12T03:52:28.516Z,6.15
2019-01-12T03:57:24.675Z,6.10
2019-01-12T04:02:20.594Z,6.07
2019-01-12T04:07:16.526Z,6.04
2019-01-12T04:12:12.451Z,6.04
2019-01-12T04:17:08.379Z,6.04
2019-01-12T04:22:04.304Z,6.03
2019-01-12T04:27:00.246Z,6.05
2019-01-12T04:31:56.183Z,6.02
2019-01-12T04:36:52.093Z,6.03
2019-01-12T04:41:48.101Z,6.03
2019-01-12T04:46:44.011Z,6.02
2019-01-12T04:51:39.947Z,6.01
2019-01-12T04:56:35.976Z,6.05
2019-01-12T05:01:31.891Z,6.01
2019-01-12T05:06:27.810Z,6.04
2019-01-12T05:11:23.747Z,6.05
2019-01-12T05:16:19.670Z,6.09
2019-01-12T05:21:15.595Z,6.02
2019-01-12T05:26:11.522Z,6.07
2019-01-12T05:31:07.467Z,6.02
2019-01-12T05:36:03.399Z,5.97
2019-01-12T05:40:59.314Z,6.01
2019-01-12T05:45:55.246Z,5.99
2019-01-12T05:50:51.202Z,5.96
2019-01-12T05:55:47.119Z,6.01
2019-01-12T06:00:43.042Z,6.01
2019-01-12T06:05:38.962Z,6.01
2019-01-12T06:10:35.221Z,5.84
2019-01-12T06:15:31.145Z,5.84
2019-01-12T06:20:27.178Z,5.83
2019-01-12T06:25:23.176Z,5.82
2019-01-12T06:30:19.099Z,5.88
2019-01-12T06:35:15.027Z,5.83
2019-01-12T06:40:15.122Z,5.86
2019-01-12T06:45:13.366Z,5.80
2019-01-12T06:50:18.108Z,5.83
2019-01-12T06:55:14.189Z,5.83
2019-01-12T07:00:13.078Z,5.79
2019-01-12T07:05:09.088Z,5.82
2019-01-12T07:10:08.178Z,5.78
2019-01-12T07:15:06.912Z,5.76
2019-01-12T07:20:07.110Z,5.86
2019-01-12T07:25:04.246Z,5.98
2019-01-12T07:30:00.230Z,5.77
2019-01-12T07:34:56.129Z,5.70
2019-01-12T07:39:52.439Z,5.70
2019-01-12T07:44:48.513Z,5.69
2019-01-12T07:49:45.302Z,5.68
2019-01-12T07:54:41.423Z,5.66
2019-01-12T07:59:37.396Z,5.77
2019-01-12T08:04:33.417Z,5.77
2019-01-12T08:09:29.348Z,5.76
2019-01-12T08:14:26.306Z,5.72
2019-01-12T08:19:24.649Z,5.79
2019-01-12T08:24:20.649Z,5.72
2019-01-12T08:29:16.587Z,5.79
2019-01-12T08:34:12.702Z,5.74
2019-01-12T08:39:08.628Z,5.76
2019-01-12T08:44:04.714Z,5.76
2019-01-12T08:49:05.800Z,5.75
2019-01-12T08:54:01.914Z,5.74
2019-01-12T08:58:57.914Z,5.72
2019-01-12T09:03:53.819Z,5.83
2019-01-12T09:08:49.727Z,5.76
2019-01-12T09:13:45.682Z,5.78
2019-01-12T09:18:41.704Z,5.78
2019-01-12T09:23:37.608Z,5.80
2019-01-12T09:28:33.567Z,5.78
2019-01-12T09:33:29.492Z,5.79
2019-01-12T09:38:25.416Z,5.75
2019-01-12T09:43:21.323Z,5.76
2019-01-12T09:48:17.245Z,5.75
2019-01-12T09:53:13.174Z,5.79
2019-01-12T09:58:09.109Z,5.78
2019-01-12T10:03:05.134Z,5.75
2019-01-12T10:08:01.029Z,5.75
2019-01-12T10:12:56.966Z,5.79
2019-01-12T10:17:52.975Z,5.81
2019-01-12T10:22:49.002Z,5.79
2019-01-12T10:27:45.000Z,5.81
2019-01-12T10:32:41.051Z,5.65
2019-01-12T10:37:37.030Z,5.61
2019-01-12T10:42:32.951Z,5.61
2019-01-12T10:47:28.947Z,5.59
2019-01-12T10:52:25.958Z,5.59
2019-01-12T10:57:21.992Z,5.61
2019-01-12T11:02:17.909Z,5.62
2019-01-12T11:07:16.346Z,5.66
2019-01-12T11:12:12.282Z,5.63
2019-01-12T11:17:08.193Z,5.73
2019-01-12T11:22:04.290Z,5.67
2019-01-12T11:27:00.403Z,5.70
2019-01-12T11:31:56.356Z,5.77
2019-01-12T11:36:52.278Z,5.79
2019-01-12T11:41:48.204Z,5.99
2019-01-12T11:46:44.111Z,5.98
2019-01-12T11:51:41.471Z,5.99
2019-01-12T11:56:37.778Z,5.96
2019-01-12T12:01:33.795Z,5.95
2019-01-12T12:06:29.818Z,5.91
2019-01-12T12:11:25.743Z,5.86
2019-01-12T12:16:21.650Z,5.82
2019-01-12T12:21:17.613Z,5.79
2019-01-12T12:26:14.755Z,5.79
2019-01-12T12:31:10.677Z,5.80
2019-01-12T12:36:06.618Z,5.83
2019-01-12T12:41:03.179Z,5.83
2019-01-12T12:45:59.200Z,5.88
2019-01-12T12:50:55.265Z,5.88
2019-01-12T12:55:51.193Z,5.91
2019-01-12T13:00:47.119Z,5.92
2019-01-12T13:05:43.047Z,5.90
2019-01-12T13:10:39.016Z,5.90
2019-01-12T13:15:35.059Z,5.93
2019-01-12T13:20:30.997Z,5.98
2019-01-12T13:25:27.005Z,5.99
2019-01-12T13:30:23.950Z,6.05
2019-01-12T13:35:20.136Z,6.04
2019-01-12T13:40:18.358Z,6.11
2019-01-12T13:45:16.491Z,6.14
2019-01-12T13:50:18.825Z,6.12
2019-01-12T13:55:15.370Z,6.16
2019-01-12T14:00:24.026Z,6.18
2019-01-12T14:05:20.128Z,6.20
2019-01-12T14:10:18.094Z,6.18
2019-01-12T14:15:16.492Z,6.18
2019-01-12T14:20:23.918Z,6.20
2019-01-12T14:25:19.879Z,6.23
2019-01-12T14:30:17.856Z,6.23
2019-01-12T14:35:15.767Z,6.40
2019-01-12T14:40:14.687Z,6.28
2019-01-12T14:45:13.934Z,6.27
2019-01-12T14:50:15.547Z,6.25
2019-01-12T14:55:14.174Z,6.28
2019-01-12T15:00:15.456Z,6.29
2019-01-12T15:05:13.869Z,6.31
2019-01-12T15:10:15.003Z,6.35
2019-01-12T15:15:14.059Z,6.37
2019-01-12T15:20:18.333Z,6.36
2019-01-12T15:25:14.450Z,6.39
2019-01-12T15:30:13.970Z,6.43
2019-01-12T15:35:15.450Z,6.48
2019-01-12T15:40:14.394Z,6.50
2019-01-12T15:45:13.154Z,6.53
2019-01-12T15:50:17.748Z,6.57
2019-01-12T15:55:16.033Z,6.57
2019-01-12T16:00:18.133Z,6.60
2019-01-12T16:05:14.209Z,6.64
2019-01-12T16:10:11.205Z,6.66
2019-01-12T16:15:10.792Z,6.69
2019-01-12T16:20:13.126Z,6.67
2019-01-12T16:25:09.873Z,6.84
2019-01-12T16:30:20.147Z,6.83
2019-01-12T16:35:17.027Z,6.83
2019-01-12T16:40:21.058Z,6.82
2019-01-12T16:45:18.485Z,6.85
2019-01-12T16:50:16.781Z,6.85
2019-01-12T16:55:15.336Z,6.86
2019-01-12T17:00:17.328Z,6.88
2019-01-12T17:05:13.525Z,6.83
2019-01-12T17:10:12.759Z,6.85
2019-01-12T17:15:11.181Z,6.90
2019-01-12T17:20:17.501Z,6.95
2019-01-12T17:25:14.025Z,7.52
2019-01-12T17:30:16.092Z,7.51
2019-01-12T17:35:12.556Z,7.18
2019-01-12T17:40:16.508Z,7.07
2019-01-12T17:45:14.883Z,7.07
2019-01-12T17:50:19.766Z,7.06
2019-01-12T17:55:17.956Z,7.05
2019-01-12T18:00:18.194Z,7.02
2019-01-12T18:05:14.301Z,6.94
2019-01-12T18:10:12.333Z,6.81
2019-01-12T18:15:15.222Z,5.40
2019-01-12T18:20:15.525Z,5.40
2019-01-12T18:25:11.895Z,5.82
2019-01-12T18:30:17.083Z,6.06
2019-01-12T18:35:13.005Z,6.40
2019-01-12T18:40:11.736Z,6.32
2019-01-12T18:45:10.459Z,6.44
2019-01-12T18:50:18.079Z,6.52
2019-01-12T18:55:14.144Z,6.63
2019-01-12T19:00:20.929Z,6.73
2019-01-12T19:05:17.231Z,6.69
2019-01-12T19:10:14.653Z,6.67
2019-01-12T19:15:19.820Z,6.66
2019-01-12T19:20:21.523Z,6.72
2019-01-12T19:25:21.341Z,6.69
2019-01-12T19:30:21.002Z,6.68
2019-01-12T19:35:19.839Z,6.75
2019-01-12T19:40:22.473Z,6.68
2019-01-12T19:45:20.109Z,6.72
2019-01-12T19:50:20.160Z,6.73
2019-01-12T19:55:17.118Z,6.77
2019-01-12T20:00:19.666Z,6.77
2019-01-12T20:05:16.836Z,6.74
2019-01-12T20:10:14.694Z,6.74
2019-01-12T20:15:13.900Z,6.72
2019-01-12T20:20:12.183Z,6.63
2019-01-12T20:25:11.007Z,6.59
2019-01-12T20:30:16.774Z,6.57
2019-01-12T20:35:33.877Z,6.53
2019-01-12T20:40:42.344Z,6.48
2019-01-12T20:45:54.171Z,6.41
2019-01-12T20:51:15.261Z,6.38
2019-01-12T20:56:24.194Z,6.31
2019-01-12T21:01:51.921Z,6.25
2019-01-12T21:07:03.567Z,6.19
2019-01-12T21:12:27.411Z,6.18
2019-01-12T21:17:23.413Z,6.22
2019-01-12T21:22:19.438Z,6.14
2019-01-12T21:27:15.871Z,6.05
2019-01-12T21:32:11.868Z,6.01
2019-01-12T21:37:07.861Z,5.97
2019-01-12T21:42:03.933Z,5.99
2019-01-12T21:46:59.969Z,5.91
2019-01-12T21:51:55.890Z,5.92
2019-01-12T21:56:51.859Z,5.98
2019-01-12T22:01:47.839Z,6.09
2019-01-12T22:06:43.984Z,6.15
2019-01-12T22:11:40.093Z,6.24
2019-01-12T22:16:38.766Z,6.30
2019-01-12T22:21:35.440Z,6.26
2019-01-12T22:26:31.363Z,6.30
2019-01-12T22:31:27.983Z,6.34
2019-01-12T22:36:24.075Z,6.33
2019-01-12T22:41:20.639Z,6.40
2019-01-12T22:46:16.557Z,6.55
2019-01-12T22:51:13.192Z,6.80
2019-01-12T22:56:09.185Z,6.88
2019-01-12T23:01:12.483Z,6.89
2019-01-12T23:06:09.463Z,6.64
2019-01-12T23:11:05.678Z,6.54
2019-01-12T23:16:01.700Z,6.63
2019-01-12T23:20:57.762Z,6.61
2019-01-12T23:25:53.998Z,6.62
2019-01-12T23:30:49.935Z,6.64
2019-01-12T23:35:45.835Z,7.13
2019-01-12T23:40:41.838Z,6.86
2019-01-12T23:45:37.853Z,7.13
2019-01-12T23:50:33.853Z,6.84
2019-01-12T23:55:29.952Z,7.03
